tititudorancea.com
Station Historical Data
Daily Summary for February 20, 2018 Units:  Metric    English   Both
« Previous Day
Next Day »
Daily Weekly Monthly Yearly Custom
  High: Low: Average:
Temperature: -17.8 °C 13.1 °C 20.6 °C
Dew Point: -17.8 °C 10.7 °C 12 °C
Humidity: Humidity % 29 % 62 %
Wind Speed: 0 km/h 0 km/h 7.2 km/h
Wind Gust: 0 km/h - -
Wind:- - South
Pressure: 0 hPa 1010.7 hPa -
Precipitation: 0 mm    
Historical Graphs
 
 
Ararat weather Find more about Weather in Ararat, AU


 



 


Tabular Data for February 20, 2018
Time Temperature Dew Point Pressure Wind Wind Speed Wind Gust Humidity Rainfall Rate (Hourly)
-17.8 °C -17.8 °C 0 hPa Calm     Humidity % 0 mm
00:02 16.6 °C 12.9 °C 1014.4 hPa SE 19.6 km/h 31.5 km/h 79 % 0 mm
00:07 16.6 °C 12.9 °C 1014.4 hPa SE 22.4 km/h 27.8 km/h 79 % 0 mm
00:12 16.5 °C 12.8 °C 1014.4 hPa SSE 13.7 km/h 20.4 km/h 79 % 0 mm
00:17 16.4 °C 13 °C 1014.8 hPa ESE 1.3 km/h 5.6 km/h 80 % 0 mm
00:22 16.4 °C 12.9 °C 1014.8 hPa ESE 4.5 km/h 4.5 km/h 80 % 0 mm
00:27 16.3 °C 12.9 °C 1014.8 hPa North 9 km/h 14.8 km/h 80 % 0 mm
00:32 16.3 °C 12.8 °C 1014.8 hPa SE 9 km/h 14.8 km/h 80 % 0 mm
00:37 16.2 °C 12.9 °C 1014.8 hPa SE 5.6 km/h 13 km/h 81 % 0 mm
00:42 16.2 °C 12.9 °C 1014.8 hPa North 13 km/h 14.8 km/h 81 % 0 mm
00:47 16.1 °C 12.8 °C 1014.8 hPa SE 11.3 km/h 20.9 km/h 81 % 0 mm
00:52 16 °C 12.7 °C 1014.8 hPa SSE 16.1 km/h 22.2 km/h 81 % 0 mm
00:57 16 °C 12.9 °C 1014.8 hPa North 12.1 km/h 18.5 km/h 82 % 0 mm
01:02 15.9 °C 12.8 °C 1014.8 hPa SSE 13.8 km/h 22.2 km/h 82 % 0 mm
01:07 15.8 °C 12.8 °C 1014.8 hPa South 9.8 km/h 18.5 km/h 82 % 0 mm
01:12 15.8 °C 12.7 °C 1014.8 hPa SSE 12.6 km/h 13 km/h 82 % 0 mm
01:17 15.7 °C 12.8 °C 1014.8 hPa SSE 15.1 km/h 18.5 km/h 83 % 0 mm
01:22 15.7 °C 12.8 °C 1014.8 hPa SE 9.8 km/h 18.5 km/h 83 % 0 mm
01:27 15.6 °C 12.7 °C 1014.8 hPa SE 15.8 km/h 15.8 km/h 83 % 0 mm
01:32 15.6 °C 12.7 °C 1014.8 hPa SSE 15.1 km/h 20.9 km/h 83 % 0 mm
01:37 15.6 °C 12.7 °C 1015.1 hPa North 10.9 km/h 18.5 km/h 83 % 0 mm
01:42 15.5 °C 12.6 °C 1015.1 hPa SSE 9.5 km/h 16.7 km/h 83 % 0 mm
01:47 15.4 °C 12.6 °C 1015.1 hPa SSE 13.5 km/h 22.2 km/h 83 % 0 mm
01:52 15.4 °C 12.5 °C 1015.1 hPa SSE 7.9 km/h 14.8 km/h 83 % 0 mm
01:57 15.3 °C 12.4 °C 1015.1 hPa SSE 9.7 km/h 16.7 km/h 83 % 0 mm
02:02 15.2 °C 12.6 °C 1015.1 hPa SSE 12.4 km/h 16.1 km/h 84 % 0 mm
02:07 15.2 °C 12.6 °C 1015.1 hPa South 7.2 km/h 16.7 km/h 84 % 0 mm
02:12 15.2 °C 12.6 °C 1015.5 hPa South 5.1 km/h 11.1 km/h 84 % 0 mm
02:17 15.2 °C 12.5 °C 1015.1 hPa South 11.6 km/h 22.5 km/h 84 % 0 mm
02:22 15.1 °C 12.4 °C 1015.5 hPa South 7.4 km/h 7.4 km/h 84 % 0 mm
02:28 15.1 °C 12.4 °C 1015.5 hPa South 10.5 km/h 10.5 km/h 84 % 0 mm
02:33 15.1 °C 12.4 °C 1015.5 hPa South 8 km/h 12.9 km/h 84 % 0 mm
02:38 15 °C 12.3 °C 1015.1 hPa North 7.1 km/h 11.1 km/h 84 % 0 mm
02:43 14.9 °C 12.2 °C 1015.1 hPa South 11.4 km/h 14.5 km/h 84 % 0 mm
02:48 14.8 °C 12.3 °C 1015.1 hPa North 12.2 km/h 14.8 km/h 85 % 0 mm
02:53 14.7 °C 12.2 °C 1015.1 hPa North 6.6 km/h 14.8 km/h 85 % 0 mm
02:58 14.7 °C 12.2 °C 1015.1 hPa North 8.5 km/h 14.8 km/h 85 % 0 mm
03:03 14.6 °C 12.1 °C 1015.1 hPa South 5.8 km/h 13 km/h 85 % 0 mm
03:08 14.5 °C 12.2 °C 1015.1 hPa South 8.4 km/h 12.9 km/h 86 % 0 mm
03:13 14.4 °C 12.1 °C 1015.1 hPa South 4.8 km/h 6.4 km/h 86 % 0 mm
03:18 14.3 °C 12 °C 1015.1 hPa North 6.6 km/h 13 km/h 86 % 0 mm
03:23 14.3 °C 11.9 °C 1015.1 hPa North 6.4 km/h 9.3 km/h 86 % 0 mm
03:28 14.2 °C 12.1 °C 1015.1 hPa North 7.6 km/h 14.8 km/h 87 % 0 mm
03:33 14.1 °C 12 °C 1015.1 hPa North 5.8 km/h 14.8 km/h 87 % 0 mm
03:38 14.1 °C 12 °C 1015.1 hPa SSE 9.8 km/h 16.7 km/h 87 % 0 mm
03:43 14.1 °C 12 °C 1015.1 hPa SSE 7.6 km/h 13 km/h 87 % 0 mm
03:48 14.1 °C 11.9 °C 1015.1 hPa North 8.4 km/h 11.1 km/h 87 % 0 mm
03:53 14 °C 11.9 °C 1015.1 hPa SSE 7.6 km/h 12.9 km/h 87 % 0 mm
03:58 13.9 °C 11.8 °C 1015.1 hPa SSE 6.9 km/h 13 km/h 87 % 0 mm
04:03 13.9 °C 11.8 °C 1015.1 hPa North 6.9 km/h 14.8 km/h 87 % 0 mm
04:08 13.8 °C 11.7 °C 1015.1 hPa North 8.2 km/h 13 km/h 87 % 0 mm
04:13 13.8 °C 11.8 °C 1015.1 hPa South 10.5 km/h 18.5 km/h 88 % 0 mm
04:18 13.7 °C 11.8 °C 1015.1 hPa North 10 km/h 13 km/h 88 % 0 mm
04:23 13.7 °C 11.8 °C 1015.1 hPa North 9.8 km/h 14.8 km/h 88 % 0 mm
04:28 13.7 °C 11.7 °C 1015.1 hPa South 8.4 km/h 14.8 km/h 88 % 0 mm
04:33 13.7 °C 11.7 °C 1015.1 hPa South 7.1 km/h 14.8 km/h 88 % 0 mm
04:39 13.6 °C 11.7 °C 1015.1 hPa North 9.2 km/h 14.8 km/h 88 % 0 mm
04:44 13.6 °C 11.6 °C 1015.1 hPa South 10.1 km/h 14.8 km/h 88 % 0 mm
04:49 13.6 °C 11.6 °C 1015.1 hPa North 9.3 km/h 18.5 km/h 88 % 0 mm
04:54 13.5 °C 11.6 °C 1015.5 hPa South 7.2 km/h 9.7 km/h 88 % 0 mm
04:59 13.4 °C 11.5 °C 1015.1 hPa North 8.4 km/h 14.5 km/h 88 % 0 mm
05:04 13.4 °C 11.6 °C 1015.1 hPa South 9.3 km/h 14.8 km/h 89 % 0 mm
05:09 13.4 °C 11.6 °C 1015.1 hPa South 8.7 km/h 13 km/h 89 % 0 mm
05:14 13.3 °C 11.6 °C 1015.5 hPa South 10.1 km/h 11.3 km/h 89 % 0 mm
05:19 13.3 °C 11.6 °C 1015.5 hPa North 10.9 km/h 19.3 km/h 89 % 0 mm
05:24 13.3 °C 11.6 °C 1015.5 hPa North 8.7 km/h 14.8 km/h 89 % 0 mm
05:29 13.3 °C 11.6 °C 1015.5 hPa South 6.4 km/h 14.8 km/h 89 % 0 mm
05:34 13.3 °C 11.6 °C 1015.5 hPa South 5 km/h 16.7 km/h 89 % 0 mm
05:39 13.3 °C 11.6 °C 1015.5 hPa North 7.2 km/h 13 km/h 89 % 0 mm
05:44 13.3 °C 11.5 °C 1015.5 hPa South 6.1 km/h 13 km/h 89 % 0 mm
05:49 13.3 °C 11.6 °C 1015.5 hPa South 5.3 km/h 13 km/h 89 % 0 mm
05:54 13.3 °C 11.6 °C 1015.1 hPa South 4.5 km/h 11.1 km/h 89 % 0 mm
05:59 13.3 °C 11.6 °C 1015.5 hPa North 4.2 km/h 13 km/h 89 % 0 mm
06:04 13.3 °C 11.5 °C 1015.1 hPa North 8.4 km/h 14.8 km/h 89 % 0 mm
06:09 13.3 °C 11.5 °C 1015.5 hPa North 6.6 km/h 7.4 km/h 89 % 0 mm
06:14 13.3 °C 11.5 °C 1015.1 hPa South 5 km/h 7.4 km/h 89 % 0 mm
06:19 13.2 °C 11.4 °C 1015.1 hPa North 9.7 km/h 13 km/h 89 % 0 mm
06:24 13.2 °C 11.4 °C 1015.5 hPa North 8 km/h 11.1 km/h 89 % 0 mm
06:29 13.2 °C 11.4 °C 1015.5 hPa South 7.6 km/h 12.9 km/h 89 % 0 mm
06:34 13.3 °C 11.5 °C 1015.5 hPa South 7.1 km/h 11.1 km/h 89 % 0 mm
06:39 13.3 °C 11.5 °C 1015.5 hPa South 6.8 km/h 13 km/h 89 % 0 mm
06:44 13.2 °C 11.4 °C 1015.5 hPa South 6.6 km/h 11.1 km/h 89 % 0 mm
06:49 13.2 °C 11.4 °C 1015.5 hPa South 8.9 km/h 16.1 km/h 89 % 0 mm
06:54 13.2 °C 11.4 °C 1015.5 hPa North 8.9 km/h 11.3 km/h 89 % 0 mm
06:59 13.2 °C 11.4 °C 1015.5 hPa North 6.3 km/h 11.1 km/h 89 % 0 mm
07:04 13.2 °C 11.4 °C 1015.5 hPa South 5.6 km/h 11.1 km/h 89 % 0 mm
07:09 13.2 °C 11.4 °C 1015.5 hPa North 3.2 km/h 8 km/h 89 % 0 mm
07:14 13.1 °C 11.3 °C 1015.5 hPa South 3.4 km/h 9.3 km/h 89 % 0 mm
07:19 13.1 °C 11.3 °C 1015.5 hPa North 6.6 km/h 13 km/h 89 % 0 mm
07:24 13.2 °C 11.4 °C 1015.5 hPa South 7.2 km/h 13 km/h 89 % 0 mm
07:29 13.2 °C 11.4 °C 1015.8 hPa South 5.6 km/h 14.8 km/h 89 % 0 mm
07:34 13.2 °C 11.4 °C 1015.8 hPa North 8.5 km/h 13 km/h 89 % 0 mm
07:39 13.3 °C 11.6 °C 1015.8 hPa North 4 km/h 7.4 km/h 89 % 0 mm
07:44 13.4 °C 11.6 °C 1015.8 hPa North 5 km/h 7.4 km/h 89 % 0 mm
07:49 13.5 °C 11.7 °C 1015.8 hPa South 8 km/h 18.5 km/h 89 % 0 mm
07:54 13.6 °C 11.8 °C 1015.8 hPa South 4.7 km/h 13 km/h 89 % 0 mm
08:00 13.8 °C 12 °C 1015.8 hPa SSE 6.8 km/h 11.1 km/h 89 % 0 mm
08:05 13.9 °C 11.9 °C 1015.8 hPa North 6.4 km/h 13 km/h 88 % 0 mm
08:10 14.1 °C 12.2 °C 1015.8 hPa South 11.1 km/h 16.1 km/h 88 % 0 mm
08:15 14.3 °C 12.2 °C 1015.8 hPa SSE 6.4 km/h 11.1 km/h 87 % 0 mm
08:20 14.5 °C 12.3 °C 1015.8 hPa SE 8 km/h 14.8 km/h 87 % 0 mm
08:25 14.8 °C 12.3 °C 1015.8 hPa SSE 6.9 km/h 9.3 km/h 85 % 0 mm
08:30 15 °C 12.5 °C 1015.8 hPa SSE 5.1 km/h 9.3 km/h 85 % 0 mm
08:35 15.2 °C 12.6 °C 1016.1 hPa SSE 5.6 km/h 11.1 km/h 84 % 0 mm
08:40 15.5 °C 12.6 °C 1016.1 hPa North 3.9 km/h 5.6 km/h 83 % 0 mm
08:46 15.8 °C 12.7 °C 1016.1 hPa SSE 14.8 km/h 14.8 km/h 82 % 0 mm
08:51 16 °C 12.7 °C 1016.1 hPa SSE 4.8 km/h 9.3 km/h 81 % 0 mm
08:56 16.2 °C 12.8 °C 1016.1 hPa SSE 6.8 km/h 9.3 km/h 80 % 0 mm
09:01 16.7 °C 13 °C 1016.1 hPa SSE 4.5 km/h 8 km/h 79 % 0 mm
09:06 17 °C 13.1 °C 1016.1 hPa SSE 3.4 km/h 7.4 km/h 78 % 0 mm
09:07 17.1 °C 13.2 °C 1016.1 hPa SSE 3.9 km/h 7.4 km/h 78 % 0 mm
09:12 17.5 °C 13.2 °C 1016.1 hPa SSE 2.3 km/h 7.4 km/h 76 % 0 mm
09:17 17.7 °C 13 °C 1016.1 hPa SSE 3.2 km/h 5.6 km/h 74 % 0 mm
09:22 17.9 °C 13.2 °C 1016.1 hPa SSE 3.2 km/h 5.6 km/h 74 % 0 mm
09:27 18.1 °C 13.2 °C 1016.1 hPa SSE 3.2 km/h 8 km/h 73 % 0 mm
09:32 18.2 °C 13.1 °C 1016.1 hPa SSE 8.2 km/h 11.1 km/h 72 % 0 mm
09:37 18.3 °C 13 °C 1016.1 hPa SSE 5.8 km/h 7.4 km/h 71 % 0 mm
09:42 18.6 °C 13.1 °C 1016.1 hPa SSE 7.6 km/h 9.3 km/h 70 % 0 mm
09:47 18.9 °C 13.1 °C 1016.1 hPa SSE 8.7 km/h 11.1 km/h 69 % 0 mm
09:52 19.3 °C 13 °C 1016.1 hPa South 5.3 km/h 7.4 km/h 67 % 0 mm
09:57 19.7 °C 13.1 °C 1016.1 hPa North 4.7 km/h 9.3 km/h 66 % 0 mm
10:02 19.8 °C 13.1 °C 1016.1 hPa South 4.7 km/h 5.6 km/h 65 % 0 mm
10:07 20.1 °C 13.3 °C 1016.1 hPa South 2.4 km/h 5.6 km/h 65 % 0 mm
10:12 20.7 °C 13.7 °C 1016.1 hPa North 0.2 km/h 1.9 km/h 64 % 0 mm
10:17 21.2 °C 13.4 °C 1015.8 hPa South 4 km/h 5.6 km/h 61 % 0 mm
10:22 21.3 °C 13.2 °C 1015.8 hPa South 0.8 km/h 1.9 km/h 60 % 0 mm
10:27 21.6 °C 13.5 °C 1015.8 hPa Calm     60 % 0 mm
10:32 22.2 °C 13.2 °C 1015.8 hPa South 1.6 km/h 3.7 km/h 57 % 0 mm
10:37 22.6 °C 13.4 °C 1015.8 hPa North 0.8 km/h 3.7 km/h 56 % 0 mm
10:42 22.9 °C 13.1 °C 1015.8 hPa South 1.3 km/h 5.6 km/h 54 % 0 mm
10:47 23.4 °C 13.3 °C 1015.8 hPa South 0.3 km/h 1.9 km/h 53 % 0 mm
10:52 23.9 °C 13.2 °C 1015.8 hPa Calm   1.9 km/h 51 % 0 mm
10:57 24.5 °C 13.4 °C 1015.8 hPa ESE 5.8 km/h 11.1 km/h 50 % 0 mm
11:02 24.7 °C 13.3 °C 1015.5 hPa ESE 6.1 km/h 9.3 km/h 49 % 0 mm
11:07 24.9 °C 13.2 °C 1015.5 hPa ESE 4.8 km/h 8 km/h 48 % 0 mm
11:12 24.9 °C 12.8 °C 1015.5 hPa NNE 8 km/h 11.1 km/h 47 % 0 mm
11:17 24.8 °C 12.7 °C 1015.5 hPa NNE 3.4 km/h 7.4 km/h 47 % 0 mm
11:22 25.1 °C 13.3 °C 1015.5 hPa ENE 6 km/h 11.1 km/h 48 % 0 mm
11:27 25.3 °C 13.2 °C 1015.5 hPa NE 5.1 km/h 8 km/h 47 % 0 mm
11:32 25.6 °C 13.4 °C 1015.5 hPa North 10.9 km/h 14.8 km/h 47 % 0 mm
11:37 25.6 °C 13.1 °C 1015.5 hPa NNW 8.2 km/h 9.3 km/h 46 % 0 mm
11:42 25.6 °C 13.4 °C 1015.1 hPa NNW 2.7 km/h 5.6 km/h 47 % 0 mm
11:47 26.3 °C 13.4 °C 1015.1 hPa NNE 4.3 km/h 9.7 km/h 45 % 0 mm
11:52 27.1 °C 13.8 °C 1015.1 hPa NNE 2.7 km/h 5.6 km/h 44 % 0 mm
11:57 27.1 °C 13.1 °C 1014.8 hPa NE 9.8 km/h 13 km/h 42 % 0 mm
12:02 27 °C 13.3 °C 1014.8 hPa NNW 6.4 km/h 9.3 km/h 43 % 0 mm
12:07 26.9 °C 13.3 °C 1014.8 hPa NNW 4.2 km/h 5.6 km/h 43 % 0 mm
12:12 27.2 °C 13.2 °C 1014.8 hPa NNE 7.9 km/h 13 km/h 42 % 0 mm
12:17 27.2 °C 13.5 °C 1014.8 hPa NNE 1.3 km/h 3.7 km/h 43 % 0 mm
12:22 27.7 °C 13.2 °C 1014.8 hPa NNE 4.8 km/h 7.4 km/h 41 % 0 mm
12:27 27.8 °C 13.3 °C 1014.4 hPa North 9.7 km/h 14.8 km/h 41 % 0 mm
12:32 27.6 °C 13.2 °C 1014.4 hPa NNW 7.9 km/h 11.1 km/h 41 % 0 mm
12:37 27.7 °C 13.2 °C 1014.4 hPa NNE 5.8 km/h 9.3 km/h 41 % 0 mm
12:42 27.6 °C 12.8 °C 1014.4 hPa NNE 11.3 km/h 18.5 km/h 40 % 0 mm
12:47 27.6 °C 13.2 °C 1014.4 hPa NNE 10.8 km/h 16.7 km/h 41 % 0 mm
12:52 27.8 °C 12.9 °C 1014.1 hPa NNE 3.5 km/h 9.3 km/h 40 % 0 mm
12:57 28.1 °C 12.8 °C 1014.1 hPa North 7.1 km/h 11.1 km/h 39 % 0 mm
13:02 27.9 °C 13.1 °C 1014.1 hPa NW 8.7 km/h 13 km/h 40 % 0 mm
13:07 27.9 °C 13.1 °C 1014.1 hPa North 9.3 km/h 13 km/h 40 % 0 mm
13:12 27.8 °C 12.9 °C 1014.1 hPa NE 1.9 km/h 5.6 km/h 40 % 0 mm
13:17 28.2 °C 12.9 °C 1014.1 hPa NW 4.3 km/h 7.4 km/h 39 % 0 mm
13:22 28.4 °C 12.8 °C 1014.1 hPa North 5.6 km/h 7.4 km/h 38 % 0 mm
13:27 28.5 °C 13.2 °C 1013.8 hPa North 1.9 km/h 5.6 km/h 39 % 0 mm
13:32 29.2 °C 13.1 °C 1013.8 hPa North 7.1 km/h 9.3 km/h 37 % 0 mm
13:37 29.1 °C 12.9 °C 1013.8 hPa NW 9.5 km/h 11.3 km/h 37 % 0 mm
13:42 28.6 °C 12.5 °C 1013.8 hPa NW 1.8 km/h 5.6 km/h 37 % 0 mm
13:47 28.4 °C 12.8 °C 1013.4 hPa ENE 5.6 km/h 9.7 km/h 38 % 0 mm
13:52 28.7 °C 12.6 °C 1013.4 hPa East 6.3 km/h 7.4 km/h 37 % 0 mm
13:57 28.8 °C 12.6 °C 1013.4 hPa ENE 6.1 km/h 9.3 km/h 37 % 0 mm
14:02 29.3 °C 12.7 °C 1013.4 hPa ENE 3.9 km/h 6.4 km/h 36 % 0 mm
14:07 29.6 °C 12.5 °C 1013.4 hPa ENE 1 km/h 3.7 km/h 35 % 0 mm
14:12 30.1 °C 12.9 °C 1013.4 hPa ENE 7.6 km/h 9.3 km/h 35 % 0 mm
14:17 30.2 °C 12.6 °C 1013.4 hPa ENE 4.8 km/h 7.4 km/h 34 % 0 mm
14:22 30.4 °C 12.3 °C 1013.4 hPa ENE 4.5 km/h 9.3 km/h 33 % 0 mm
14:27 30.1 °C 12.5 °C 1013.1 hPa South 3.2 km/h 5.6 km/h 34 % 0 mm
14:32 30.1 °C 11.6 °C 1013.1 hPa SSE 1.9 km/h 5.6 km/h 32 % 0 mm
14:37 30.1 °C 12 °C 1013.1 hPa SSE 4.5 km/h 7.4 km/h 33 % 0 mm
14:42 30.4 °C 12.3 °C 1013.1 hPa SSE 4.5 km/h 5.6 km/h 33 % 0 mm
14:47 30.3 °C 12.7 °C 1013.1 hPa SSE 10.1 km/h 18.5 km/h 34 % 0 mm
14:52 30.5 °C 11.9 °C 1012.8 hPa SSE 8.5 km/h 11.1 km/h 32 % 0 mm
14:57 30.4 °C 11.3 °C 1012.8 hPa South 8 km/h 14.8 km/h 31 % 0 mm
15:02 30.3 °C 12.3 °C 1012.8 hPa South 6 km/h 11.1 km/h 33 % 0 mm
15:07 30.4 °C 11.8 °C 1012.8 hPa South 6.3 km/h 7.4 km/h 32 % 0 mm
15:12 29.9 °C 11.4 °C 1012.8 hPa SSW 4.5 km/h 8 km/h 32 % 0 mm
15:17 30 °C 11.5 °C 1012.4 hPa SSW 6.8 km/h 11.1 km/h 32 % 0 mm
15:22 30.6 °C 11.1 °C 1012.4 hPa SSE 10.6 km/h 14.8 km/h 30 % 0 mm
15:27 30.7 °C 10.7 °C 1012.4 hPa South 8.5 km/h 13 km/h 29 % 0 mm
15:32 30.7 °C 11.2 °C 1012.4 hPa SSE 10.8 km/h 16.7 km/h 30 % 0 mm
15:37 30.7 °C 11.2 °C 1012.1 hPa SSE 2.1 km/h 7.4 km/h 30 % 0 mm
15:42 30.8 °C 11.2 °C 1012.1 hPa SSE 4.2 km/h 7.4 km/h 30 % 0 mm
15:47 30.9 °C 11.3 °C 1012.1 hPa South 9.7 km/h 13 km/h 30 % 0 mm
15:52 30.7 °C 11.1 °C 1012.1 hPa SSW 7.1 km/h 9.3 km/h 30 % 0 mm
15:57 30.4 °C 10.9 °C 1011.7 hPa SSW 7.2 km/h 11.1 km/h 30 % 0 mm
16:02 30.5 °C 11.9 °C 1011.7 hPa SE 9.2 km/h 11.3 km/h 32 % 0 mm
16:07 30.8 °C 11.2 °C 1011.7 hPa East 6.1 km/h 9.3 km/h 30 % 0 mm
18:33 29.6 °C 12.5 °C 1011.1 hPa SSE 9.3 km/h 20.9 km/h 35 % 0 mm
18:38 29.3 °C 12.7 °C 1011.1 hPa SE 15 km/h 29.6 km/h 36 % 0 mm
18:43 29.3 °C 12.7 °C 1010.7 hPa SE 7.9 km/h 14.8 km/h 36 % 0 mm
18:48 29.3 °C 12.2 °C 1011.1 hPa SE 19 km/h 27.8 km/h 35 % 0 mm
18:53 29.2 °C 12.6 °C 1011.1 hPa ESE 9.5 km/h 18.5 km/h 36 % 0 mm
18:58 29 °C 12.4 °C 1011.1 hPa SE 12.9 km/h 20.4 km/h 36 % 0 mm
19:03 28.9 °C 12.4 °C 1011.1 hPa SSE 12.1 km/h 27.4 km/h 36 % 0 mm
19:08 28.6 °C 12.5 °C 1011.1 hPa SE 12.9 km/h 18.5 km/h 37 % 0 mm
19:13 28.4 °C 12.3 °C 1011.1 hPa SE 15.3 km/h 27.8 km/h 37 % 0 mm
19:18 28.2 °C 12.5 °C 1011.1 hPa SSE 13.2 km/h 22.2 km/h 38 % 0 mm
19:23 27.9 °C 12.3 °C 1011.1 hPa SSE 18.8 km/h 31.5 km/h 38 % 0 mm
19:28 27.8 °C 12.2 °C 1011.1 hPa SE 15.8 km/h 24.1 km/h 38 % 0 mm
19:33 27.6 °C 12.4 °C 1011.4 hPa SE 14.6 km/h 18.5 km/h 39 % 0 mm
19:38 27.5 °C 12.3 °C 1011.4 hPa SE 8.5 km/h 18.5 km/h 39 % 0 mm
19:43 27.3 °C 12.2 °C 1011.4 hPa SSE 12.6 km/h 20.9 km/h 39 % 0 mm
19:48 26.9 °C 11.8 °C 1011.7 hPa SSE 14.3 km/h 31.5 km/h 39 % 0 mm
19:53 26.6 °C 11.9 °C 1011.7 hPa SE 12.1 km/h 20.4 km/h 40 % 0 mm
19:58 26.4 °C 11.7 °C 1011.7 hPa SE 12.2 km/h 13 km/h 40 % 0 mm
20:03 26.2 °C 11.9 °C 1011.7 hPa SE 14 km/h 27.4 km/h 41 % 0 mm
20:08 25.9 °C 11.7 °C 1011.7 hPa SE 6.6 km/h 14.8 km/h 41 % 0 mm
20:13 25.7 °C 11.8 °C 1012.1 hPa SE 6.4 km/h 16.7 km/h 42 % 0 mm
20:19 25.4 °C 11.6 °C 1012.1 hPa SSE 12.6 km/h 14.8 km/h 42 % 0 mm
20:23 25.2 °C 11.3 °C 1012.1 hPa SSE 8.5 km/h 22.2 km/h 42 % 0 mm
20:29 25 °C 11.6 °C 1012.1 hPa SSE 8.7 km/h 19.3 km/h 43 % 0 mm
20:34 24.8 °C 11.4 °C 1012.1 hPa SSE 10.1 km/h 13 km/h 43 % 0 mm
20:39 24.7 °C 11.6 °C 1012.4 hPa SSE 6.4 km/h 16.7 km/h 44 % 0 mm
20:44 24.4 °C 11.4 °C 1012.4 hPa SSE 9.3 km/h 9.3 km/h 44 % 0 mm
20:49 24.3 °C 11.6 °C 1012.4 hPa SSE 6.1 km/h 9.3 km/h 45 % 0 mm
20:54 24.1 °C 11.4 °C 1012.1 hPa SSE 5.5 km/h 9.3 km/h 45 % 0 mm
20:59 23.9 °C 11.3 °C 1012.4 hPa SSE 3.9 km/h 8 km/h 45 % 0 mm
21:04 23.8 °C 11.1 °C 1012.4 hPa SSE 5.3 km/h 9.7 km/h 45 % 0 mm
21:09 23.6 °C 11.3 °C 1012.1 hPa SSE 8.2 km/h 13 km/h 46 % 0 mm
21:14 23.5 °C 11.2 °C 1012.4 hPa SSE 1.9 km/h 6.4 km/h 46 % 0 mm
21:19 23.4 °C 11.2 °C 1012.4 hPa SE 12.4 km/h 18.5 km/h 46 % 0 mm
21:24 23.4 °C 11.2 °C 1012.4 hPa SE 8.5 km/h 16.7 km/h 46 % 0 mm
21:29 23.4 °C 11.1 °C 1012.4 hPa SE 7.1 km/h 13 km/h 46 % 0 mm
21:34 23.3 °C 11 °C 1012.4 hPa SE 3.4 km/h 9.3 km/h 46 % 0 mm
21:39 23.1 °C 11.2 °C 1012.4 hPa SE 8.5 km/h 13 km/h 47 % 0 mm
21:44 23 °C 11.1 °C 1012.4 hPa ESE 14.6 km/h 20.4 km/h 47 % 0 mm
21:49 23 °C 11.1 °C 1012.4 hPa ESE 7.6 km/h 14.8 km/h 47 % 0 mm
21:54 22.9 °C 11 °C 1012.4 hPa ESE 9.3 km/h 14.8 km/h 47 % 0 mm
21:59 22.7 °C 10.8 °C 1012.8 hPa SE 8.9 km/h 13 km/h 47 % 0 mm
22:04 22.6 °C 11 °C 1012.8 hPa SE 7.4 km/h 14.8 km/h 48 % 0 mm
22:09 22.4 °C 10.8 °C 1012.8 hPa SE 8.2 km/h 16.7 km/h 48 % 0 mm
22:14 22.2 °C 10.7 °C 1012.8 hPa SE 6.9 km/h 14.8 km/h 48 % 0 mm
22:19 22.1 °C 10.9 °C 1012.8 hPa SE 5.8 km/h 9.3 km/h 49 % 0 mm
22:24 22 °C 10.8 °C 1012.8 hPa SSE 6.3 km/h 11.1 km/h 49 % 0 mm
22:29 21.9 °C 11.1 °C 1012.8 hPa SSE 4.3 km/h 7.4 km/h 50 % 0 mm
22:34 21.8 °C 10.9 °C 1013.1 hPa SSE 5.5 km/h 7.4 km/h 50 % 0 mm
22:39 21.7 °C 10.8 °C 1012.8 hPa SSE 5.3 km/h 9.7 km/h 50 % 0 mm
22:44 21.6 °C 11 °C 1012.8 hPa SSE 2.4 km/h 7.4 km/h 51 % 0 mm
22:49 21.4 °C 10.9 °C 1012.8 hPa SSE 2.4 km/h 7.4 km/h 51 % 0 mm
22:54 21.3 °C 11.1 °C 1012.8 hPa SSE 7.6 km/h 11.3 km/h 52 % 0 mm
22:59 21.2 °C 10.9 °C 1012.8 hPa SSE 4.8 km/h 9.3 km/h 52 % 0 mm
23:04 21.1 °C 10.9 °C 1013.1 hPa SSE 7.1 km/h 9.7 km/h 52 % 0 mm
23:09 20.9 °C 11 °C 1013.1 hPa SSE 5.6 km/h 9.3 km/h 53 % 0 mm
23:14 20.8 °C 10.9 °C 1012.8 hPa SSE 3.2 km/h 8 km/h 53 % 0 mm
23:19 20.7 °C 11.1 °C 1012.8 hPa SSE 4.2 km/h 8 km/h 54 % 0 mm
23:24 20.7 °C 11 °C 1012.8 hPa SSE 1.3 km/h 5.6 km/h 54 % 0 mm
23:29 20.6 °C 11 °C 1012.8 hPa SSE 1.4 km/h 5.6 km/h 54 % 0 mm
23:34 20.5 °C 10.9 °C 1012.8 hPa SSE 2.4 km/h 7.4 km/h 54 % 0 mm
23:39 20.4 °C 11.1 °C 1012.4 hPa SSE 1.1 km/h 5.6 km/h 55 % 0 mm
23:44 20.3 °C 11 °C 1012.4 hPa Calm     55 % 0 mm
23:49 20.3 °C 10.9 °C 1012.4 hPa SSE 1.1 km/h 1.9 km/h 55 % 0 mm
23:54 20.2 °C 11.1 °C 1012.1 hPa Calm     56 % 0 mm
23:59 20.1 °C 11 °C 1012.1 hPa SSE 2.4 km/h 3.7 km/h 56 % 0 mm
Ararat Weather
Compliments of Weather Underground - 2.25 mb
Click here to send mail.


ABOUT

Live weather data from Ararat, Victoria, Australia, 3377
Data uploaded from Cumulus every 5 minutes to Weather Underground.
This site then downloads the raw data for formatting and display.
Metric and imperial data can be displayed. Graphs and historical data available.
Includes Sun and Moon times and rain image live from BOM.

Check out Ararat Weather on Facebook, Twitter and Google +

Help support ongoing costs by checking out the ads





Follow @AraratWeather